Terminal Aerodrome Forecast
Issued by NWS Upton, NY

Home | Current Version | Previous Version | Text Only | Print | Product List | Glossary On
Versions: 1 2 3 4 5 6 7 8 9 10 11 12 13 14 15 16 17 18 19 20 21 22 23 24 25 26 27 28
000
FTUS41 KOKX 291400 AAA
TAFISP
TAF AMD
KISP 291430Z 2915/3012 03008KT P6SM FEW050
     FM291800 16009KT P6SM FEW050 SCT250
     FM300300 16004KT P6SM SCT250
     FM300900 15003KT P6SM FEW020 SCT250=

USA.gov is the U.S. government's official web portal to all federal, state and local government web resources and services.